La Ronge Airport
CYVC : now visible

Airfield :











YOU CAN JOIN US ON...

 
LOGIN :

Register | Disclaimer

   EN    FR    IT 

 









Legend :    VFR   Marginal VFR   IFR   Intensive IFR   Very Intensive IFR
Visi :
Ceiling :
>= 8 km
>= 3000ft
5 to 8 km
1000 to 3000 ft
1500m to 5 km
500 to 1000 ft
800 to 1500m
200 to 500 ft
< 800m
< 200 ft
Symbols :   Thunderstorms  Fog  Heavy snow  Heavy precipitations  Wind > 20 kt






- Airport Elevation : 1242 ft
- IATA code : YVC


CYVC - La Ronge

CURRENT METAR :
  • 282300Z 14010KT 15SM FEW012 FEW080 BKN250 23/05 A3000 RMK CU1AC1CI3 SLP170 DENSITY ALT 2400FT

EXPIRED METARs :
  • 282200Z 13014G19KT 15SM FEW012 FEW120 SCT250 22/04 A3002 RMK CU1AC1CI2 SLP177 DENSITY ALT 2300FT
  • 282100Z 14014KT 15SM BKN120 22/05 A3004 RMK AC5 SLP183 DENSITY ALT 2200FT
  • 282000Z 12010G16KT 15SM BKN130 BKN250 19/05 A3006 RMK AC6CI1 SLP191 DENSITY ALT 1900FT
  • 281900Z 13012G18KT 15SM BKN110 BKN250 19/04 A3008 RMK AC5CI2 SLP199 DENSITY ALT 1900FT

TAF TAF CYVC
Valid from the 28 at 19:00 until the 29 at 07:00 UTC


281840Z 2819/2907 13012KT P6SM FEW080 SCT120 BKN250 RMK NXT FCST BY 290100Z
CZWG FIR / North America



MET'MAP, your aeronautical weather chart ! - Copyright ORBIFLY December 2007 - Disclaimer

ORBIFLY MET'MAP TEAM :

Programming & Development : Alexandra Zaïnal
Original concept : Baudouin d'Aumeries
Technical & hardware support : Manuel Goepfert
Assistance : Marc-Olivier Méhu




SOURCES & CREDITS :

   NOAA       Earth
Advisory